Time;durP1;ratioP1;P1;durP2;ratioP2;P2;SDS_P1;SDS_P2;PMS_P1;PMS_P2;Temp;Humidity;BMP_temperature;BMP_pressure;BME280_temperature;BME280_humidity;BME280_pressure;Samples;Min_cycle;Max_cycle;Signal;HPM_P1;HPM_P2
2023/05/01 00:02:18;;;;;;;2.40;1.47;;;15.90;34.70;;;;;;5048127;28;20185;-71
2023/05/01 00:04:44;;;;;;;2.50;1.60;;;15.80;36.50;;;;;;5050129;28;20436;-71
2023/05/01 00:07:10;;;;;;;2.50;1.40;;;15.60;35.20;;;;;;5035494;28;20208;-71
2023/05/01 00:09:35;;;;;;;3.20;1.87;;;15.70;34.70;;;;;;5048675;28;20182;-71
2023/05/01 00:12:02;;;;;;;2.90;1.70;;;15.70;35.20;;;;;;5044990;28;20790;-71
2023/05/01 00:14:28;;;;;;;6.57;1.50;;;15.60;36.20;;;;;;5040437;28;20217;-70
2023/05/01 00:16:53;;;;;;;2.60;1.57;;;15.50;37.50;;;;;;5045347;28;20457;-72
2023/05/01 00:19:19;;;;;;;4.33;1.63;;;15.60;37.00;;;;;;5041283;28;20615;-71
2023/05/01 00:21:46;;;;;;;2.27;1.33;;;15.50;37.50;;;;;;5035410;28;20168;-71
2023/05/01 00:24:12;;;;;;;2.53;1.60;;;15.70;34.90;;;;;;5048544;28;20648;-70
2023/05/01 00:26:38;;;;;;;2.73;1.57;;;15.60;35.20;;;;;;5041866;28;20441;-70
2023/05/01 00:29:04;;;;;;;2.60;1.80;;;15.80;34.30;;;;;;5048270;28;20449;-71
2023/05/01 00:31:29;;;;;;;2.27;1.40;;;15.90;35.30;;;;;;5034613;28;20179;-71
2023/05/01 00:33:56;;;;;;;2.40;1.50;;;15.80;36.00;;;;;;5049039;28;20624;-71
2023/05/01 00:36:21;;;;;;;2.50;1.60;;;15.80;35.20;;;;;;5051288;28;20174;-71
2023/05/01 00:38:47;;;;;;;2.53;1.57;;;15.90;35.40;;;;;;5050248;28;20547;-71
2023/05/01 00:41:12;;;;;;;3.80;2.07;;;15.60;36.30;;;;;;5041857;28;20259;-71
2023/05/01 00:43:38;;;;;;;2.40;1.50;;;15.50;37.10;;;;;;5040118;28;20900;-71
2023/05/01 00:46:04;;;;;;;2.87;1.80;;;15.30;36.30;;;;;;5036390;28;20173;-71
2023/05/01 00:48:30;;;;;;;2.50;1.70;;;15.60;36.80;;;;;;5043275;28;20203;-72
2023/05/01 00:50:58;;;;;;;2.53;1.80;;;15.60;37.60;;;;;;5042929;28;20411;-71
2023/05/01 00:53:25;;;;;;;2.60;1.53;;;15.60;37.70;;;;;;5050178;28;20166;-71
2023/05/01 00:55:52;;;;;;;2.40;1.60;;;15.60;37.60;;;;;;5041347;28;20959;-72
2023/05/01 00:58:18;;;;;;;2.13;1.37;;;15.50;35.60;;;;;;5042557;28;20433;-71
2023/05/01 01:00:44;;;;;;;2.73;1.60;;;15.50;35.90;;;;;;5049576;28;20423;-72
2023/05/01 01:03:10;;;;;;;3.20;1.60;;;15.40;34.90;;;;;;5049049;28;20421;-71
2023/05/01 01:05:41;;;;;;;2.50;1.67;;;15.20;36.00;;;;;;5047169;28;20708;-72
2023/05/01 01:08:16;;;;;;;2.53;1.63;;;15.30;36.50;;;;;;5039787;28;20475;-70
2023/05/01 01:11:24;;;;;;;3.63;2.37;;;15.30;36.50;;;;;;5050717;28;20417;-71
2023/05/01 01:13:59;;;;;;;2.50;1.60;;;15.30;36.70;;;;;;5027291;28;20443;-70
2023/05/01 01:16:51;;;;;;;2.30;1.50;;;15.30;36.00;;;;;;5017712;28;20466;-71
2023/05/01 01:19:40;;;;;;;3.23;1.80;;;15.40;37.20;;;;;;5016746;28;20672;-70
2023/05/01 01:22:20;;;;;;;2.33;1.60;;;15.60;37.60;;;;;;5023243;28;20477;-71
2023/05/01 01:25:13;;;;;;;4.00;2.60;;;15.60;37.90;;;;;;5008062;28;20498;-71
2023/05/01 01:27:58;;;;;;;2.70;1.70;;;15.70;36.90;;;;;;5020616;28;20639;-71
2023/05/01 01:30:51;;;;;;;2.50;1.67;;;15.70;37.70;;;;;;5025902;28;20449;-71
2023/05/01 01:33:31;;;;;;;2.23;1.43;;;15.70;37.10;;;;;;5024256;28;20434;-70
2023/05/01 01:36:06;;;;;;;2.20;1.40;;;15.70;37.60;;;;;;5016733;28;20511;-71
2023/05/01 01:38:45;;;;;;;2.40;1.57;;;15.70;36.50;;;;;;5018261;28;20474;-72
2023/05/01 01:41:32;;;;;;;2.63;1.83;;;15.70;35.60;;;;;;5027350;28;20421;-70
2023/05/01 01:44:27;;;;;;;2.33;1.53;;;15.80;35.10;;;;;;5011330;28;20450;-71
2023/05/01 01:46:53;;;;;;;2.23;1.47;;;15.80;32.80;;;;;;5012321;28;20526;-71
2023/05/01 01:49:23;;;;;;;2.97;1.87;;;15.80;33.00;;;;;;5041081;28;20528;-71
2023/05/01 01:51:51;;;;;;;3.50;2.03;;;15.90;33.80;;;;;;5049119;28;20184;-70
2023/05/01 01:54:36;;;;;;;3.63;2.23;;;15.90;31.80;;;;;;5053042;28;20508;-71
2023/05/01 01:57:03;;;;;;;2.77;1.80;;;16.00;32.20;;;;;;5054157;28;20439;-71
2023/05/01 01:59:34;;;;;;;2.60;1.80;;;16.00;34.40;;;;;;5051744;28;20479;-71
2023/05/01 02:02:01;;;;;;;2.93;1.90;;;16.10;32.30;;;;;;5047371;28;20433;-72
2023/05/01 02:04:28;;;;;;;2.50;1.53;;;16.10;32.00;;;;;;5044534;28;20440;-71
2023/05/01 02:07:00;;;;;;;2.50;1.77;;;16.10;32.40;;;;;;5047389;28;20435;-71
2023/05/01 02:09:27;;;;;;;2.60;1.80;;;16.00;31.70;;;;;;5043401;28;20439;-72
2023/05/01 02:11:54;;;;;;;2.20;1.30;;;16.00;32.70;;;;;;5042154;28;20414;-71
2023/05/01 02:14:21;;;;;;;5.03;2.53;;;15.80;32.40;;;;;;5033068;28;20550;-71
2023/05/01 02:16:49;;;;;;;2.77;1.70;;;15.80;32.80;;;;;;5043816;28;20474;-71
2023/05/01 02:19:15;;;;;;;3.03;2.13;;;15.60;31.70;;;;;;5049532;28;20440;-71
2023/05/01 02:21:42;;;;;;;2.83;1.77;;;15.60;32.10;;;;;;5041686;28;20429;-71
2023/05/01 02:24:09;;;;;;;3.13;1.90;;;15.50;32.10;;;;;;5033088;28;20422;-71
2023/05/01 02:26:42;;;;;;;2.27;1.40;;;15.20;32.50;;;;;;5033473;28;20422;-71
2023/05/01 02:29:09;;;;;;;3.50;2.27;;;15.40;34.10;;;;;;5041507;28;20844;-71
2023/05/01 02:31:34;;;;;;;2.40;1.60;;;15.40;33.50;;;;;;5039292;28;20952;-71
2023/05/01 02:34:00;;;;;;;2.60;1.70;;;15.10;34.60;;;;;;5047034;28;20450;-71
2023/05/01 02:36:26;;;;;;;2.50;1.60;;;15.20;34.00;;;;;;5051616;28;20183;-70
2023/05/01 02:38:52;;;;;;;2.47;1.57;;;15.20;33.60;;;;;;5046292;28;20204;-71
2023/05/01 02:41:21;;;;;;;2.90;1.93;;;15.40;35.50;;;;;;5051353;28;20799;-71
2023/05/01 02:43:50;;;;;;;2.07;1.20;;;15.30;34.60;;;;;;5032561;28;20428;-71
2023/05/01 02:46:17;;;;;;;2.40;1.50;;;15.40;37.40;;;;;;5033296;28;20544;-70
2023/05/01 02:48:43;;;;;;;2.50;1.60;;;15.50;37.30;;;;;;5032896;28;20825;-71
2023/05/01 02:51:10;;;;;;;2.50;1.70;;;15.50;34.70;;;;;;5048324;28;20444;-71
2023/05/01 02:53:36;;;;;;;2.70;1.70;;;15.10;35.30;;;;;;5039675;28;20441;-71
2023/05/01 02:56:03;;;;;;;2.40;1.60;;;15.40;36.20;;;;;;5041681;28;20466;-71
2023/05/01 02:58:31;;;;;;;2.47;1.60;;;15.60;35.30;;;;;;5051191;28;20448;-71
2023/05/01 03:00:56;;;;;;;3.07;2.03;;;15.20;34.40;;;;;;5052470;28;20794;-71
2023/05/01 03:03:22;;;;;;;3.10;2.27;;;15.20;34.70;;;;;;5042267;28;20527;-70
2023/05/01 03:05:48;;;;;;;2.63;1.73;;;15.40;35.90;;;;;;5045969;28;20190;-71
2023/05/01 03:08:13;;;;;;;2.50;1.73;;;15.60;35.60;;;;;;5052896;28;20196;-71
2023/05/01 03:10:43;;;;;;;3.60;2.13;;;15.80;35.00;;;;;;5053142;28;20202;-71
2023/05/01 03:13:11;;;;;;;2.10;1.30;;;15.80;36.00;;;;;;5050498;28;20440;-70
2023/05/01 03:15:37;;;;;;;2.30;1.43;;;15.90;36.30;;;;;;5038091;28;20866;-71
2023/05/01 03:18:03;;;;;;;3.73;2.20;;;16.00;36.60;;;;;;5036862;28;20464;-72
2023/05/01 03:20:29;;;;;;;3.17;2.20;;;16.00;36.10;;;;;;5033009;28;20918;-71
2023/05/01 03:22:56;;;;;;;2.40;1.67;;;15.70;34.10;;;;;;5045721;28;20458;-71
2023/05/01 03:25:21;;;;;;;2.80;2.00;;;15.80;35.00;;;;;;5042989;28;20570;-71
2023/05/01 03:27:48;;;;;;;2.70;1.60;;;16.00;35.70;;;;;;5050131;28;20516;-71
2023/05/01 03:30:14;;;;;;;2.60;1.60;;;15.90;35.00;;;;;;5044939;28;20173;-72
2023/05/01 03:32:40;;;;;;;4.70;2.50;;;16.00;33.60;;;;;;5051751;28;20912;-71
2023/05/01 03:35:06;;;;;;;2.03;1.30;;;15.80;35.40;;;;;;5044571;28;20476;-71
2023/05/01 03:37:32;;;;;;;2.50;1.60;;;15.60;37.60;;;;;;5034436;28;20450;-71
2023/05/01 03:39:58;;;;;;;2.97;1.93;;;15.70;37.20;;;;;;5052664;28;20411;-71
2023/05/01 03:42:24;;;;;;;2.20;1.50;;;15.80;36.20;;;;;;5050579;28;20490;-72
2023/05/01 03:44:50;;;;;;;2.20;1.40;;;15.80;36.20;;;;;;5043414;28;20439;-71
2023/05/01 03:47:15;;;;;;;2.40;1.60;;;15.80;36.30;;;;;;5040419;28;20460;-70
2023/05/01 03:49:42;;;;;;;2.40;1.60;;;15.60;38.40;;;;;;5052224;28;20529;-70
2023/05/01 03:52:08;;;;;;;2.40;1.40;;;15.60;37.60;;;;;;5052219;28;20177;-71
2023/05/01 03:54:34;;;;;;;2.10;1.30;;;15.60;37.60;;;;;;5051511;28;20602;-71
2023/05/01 03:57:00;;;;;;;2.87;1.90;;;15.50;37.50;;;;;;5047301;28;20908;-69
2023/05/01 03:59:25;;;;;;;2.20;1.50;;;15.50;40.00;;;;;;5043626;28;20422;-70
2023/05/01 04:01:51;;;;;;;2.27;1.40;;;15.70;36.30;;;;;;5052022;28;20173;-71
2023/05/01 04:04:17;;;;;;;2.30;1.60;;;15.70;36.40;;;;;;5050868;28;20885;-71
2023/05/01 04:06:43;;;;;;;2.00;1.20;;;15.90;34.80;;;;;;5050967;28;20579;-72
2023/05/01 04:09:09;;;;;;;2.93;1.93;;;15.80;36.60;;;;;;5043012;28;20432;-71
2023/05/01 04:11:34;;;;;;;2.70;1.80;;;15.70;37.60;;;;;;5043350;28;20192;-71
2023/05/01 04:14:00;;;;;;;3.00;1.77;;;15.70;37.60;;;;;;5044245;28;20199;-71
2023/05/01 04:16:26;;;;;;;2.47;1.70;;;15.60;37.60;;;;;;5040671;28;20597;-70
2023/05/01 04:18:51;;;;;;;2.97;1.60;;;15.60;39.20;;;;;;5044824;28;20262;-71
2023/05/01 04:21:17;;;;;;;3.10;1.73;;;15.60;37.60;;;;;;5034959;28;20420;-71
2023/05/01 04:23:43;;;;;;;2.50;1.60;;;15.70;36.70;;;;;;5051012;28;20174;-72
2023/05/01 04:26:09;;;;;;;2.13;1.43;;;15.80;37.80;;;;;;5051460;28;20714;-71
2023/05/01 04:28:34;;;;;;;2.20;1.47;;;15.60;37.60;;;;;;5039928;28;20236;-70
2023/05/01 04:31:00;;;;;;;2.60;1.70;;;15.60;37.60;;;;;;5037045;28;20188;-71
2023/05/01 04:33:27;;;;;;;2.10;1.40;;;15.70;36.30;;;;;;5042450;28;20206;-70
2023/05/01 04:35:52;;;;;;;2.20;1.47;;;15.70;36.60;;;;;;5049342;28;20212;-71
2023/05/01 04:38:18;;;;;;;2.10;1.40;;;15.70;36.50;;;;;;5049076;28;20481;-71
2023/05/01 04:40:44;;;;;;;2.30;1.47;;;15.60;37.60;;;;;;5034384;28;20209;-71
2023/05/01 04:43:10;;;;;;;2.40;1.57;;;15.50;38.50;;;;;;5046257;28;20178;-71
2023/05/01 04:45:37;;;;;;;2.00;1.30;;;15.60;37.60;;;;;;5051618;28;20786;-71
2023/05/01 04:48:03;;;;;;;2.50;1.70;;;15.70;37.60;;;;;;5051489;28;20219;-68
2023/05/01 04:50:29;;;;;;;2.13;1.60;;;15.80;36.90;;;;;;5046020;28;20445;-71
2023/05/01 04:52:54;;;;;;;2.30;1.60;;;15.80;37.80;;;;;;5043077;28;20197;-72
2023/05/01 04:55:20;;;;;;;2.23;1.47;;;15.60;39.30;;;;;;5050659;28;20247;-68
2023/05/01 04:57:45;;;;;;;2.33;1.53;;;15.60;39.10;;;;;;5031856;28;20203;-68
2023/05/01 05:00:11;;;;;;;3.40;2.53;;;15.40;40.90;;;;;;5040924;28;20194;-73
2023/05/01 05:02:37;;;;;;;2.30;1.63;;;15.30;42.30;;;;;;5033284;28;20189;-72
2023/05/01 05:05:03;;;;;;;2.30;1.60;;;15.40;41.40;;;;;;5031115;28;20447;-68
2023/05/01 05:07:29;;;;;;;2.07;1.30;;;15.40;41.50;;;;;;5031122;28;20208;-68
2023/05/01 05:09:54;;;;;;;3.00;1.90;;;15.40;42.30;;;;;;5041105;28;20192;-71
2023/05/01 05:12:20;;;;;;;2.40;1.47;;;15.40;40.40;;;;;;5042120;28;21264;-68
2023/05/01 05:14:46;;;;;;;2.53;1.87;;;15.50;40.80;;;;;;5050826;28;20212;-69
2023/05/01 05:17:12;;;;;;;2.00;1.40;;;15.40;41.20;;;;;;5039026;28;20233;-68
2023/05/01 05:19:38;;;;;;;7.60;3.63;;;15.40;41.70;;;;;;5035207;28;20922;-69
2023/05/01 05:22:04;;;;;;;2.20;1.50;;;15.40;41.40;;;;;;5047005;28;20471;-69
2023/05/01 05:24:30;;;;;;;2.70;1.77;;;15.40;40.40;;;;;;5048933;28;20188;-70
2023/05/01 05:26:56;;;;;;;2.80;1.80;;;15.50;40.00;;;;;;5040255;28;20443;-71
2023/05/01 05:29:22;;;;;;;2.80;2.13;;;15.70;39.70;;;;;;5054743;28;20758;-69
2023/05/01 05:31:48;;;;;;;2.63;1.70;;;15.70;39.00;;;;;;5049705;28;20445;-72
2023/05/01 05:34:13;;;;;;;2.00;1.33;;;15.50;41.20;;;;;;5041576;28;20218;-69
2023/05/01 05:36:39;;;;;;;2.00;1.40;;;15.60;38.70;;;;;;5043193;28;20252;-69
2023/05/01 05:39:04;;;;;;;2.10;1.40;;;15.60;39.30;;;;;;5034326;28;20176;-72
2023/05/01 05:41:30;;;;;;;2.30;1.50;;;15.80;37.40;;;;;;5034677;28;20187;-70
2023/05/01 05:43:56;;;;;;;2.03;1.33;;;15.70;37.10;;;;;;5038088;28;20210;-68
2023/05/01 05:46:21;;;;;;;2.17;1.50;;;15.80;37.70;;;;;;5040714;28;20261;-69
2023/05/01 05:48:47;;;;;;;2.00;1.30;;;15.80;37.70;;;;;;5046818;28;20279;-69
2023/05/01 05:51:13;;;;;;;2.17;1.50;;;15.60;38.10;;;;;;5054334;28;20174;-69
2023/05/01 05:53:38;;;;;;;2.30;1.60;;;15.50;39.40;;;;;;5053398;28;20257;-71
2023/05/01 05:56:04;;;;;;;2.40;1.60;;;15.50;39.70;;;;;;5051540;28;20258;-69
2023/05/01 05:58:30;;;;;;;2.07;1.50;;;15.40;39.50;;;;;;5042067;28;20205;-68
2023/05/01 06:00:55;;;;;;;2.10;1.47;;;15.60;41.70;;;;;;5042394;28;20499;-69
2023/05/01 06:03:21;;;;;;;2.53;1.53;;;15.70;39.80;;;;;;5033276;28;20179;-69
2023/05/01 06:05:48;;;;;;;2.57;1.77;;;15.90;40.30;;;;;;5038825;28;20190;-69
2023/05/01 06:08:14;;;;;;;2.40;1.60;;;15.80;42.10;;;;;;5034711;28;20207;-69
2023/05/01 06:10:42;;;;;;;2.33;1.70;;;15.70;41.70;;;;;;5052995;28;20452;-69
2023/05/01 06:13:08;;;;;;;2.90;2.03;;;15.70;43.10;;;;;;5046148;28;20422;-69
2023/05/01 06:15:38;;;;;;;2.40;1.80;;;15.70;42.70;;;;;;5051870;28;20458;-69
2023/05/01 06:18:03;;;;;;;2.70;1.80;;;15.80;43.10;;;;;;5042184;28;20468;-69
2023/05/01 06:20:29;;;;;;;2.27;1.53;;;15.90;42.90;;;;;;5040672;28;20448;-71
2023/05/01 06:22:55;;;;;;;2.47;1.67;;;15.90;42.10;;;;;;5039436;28;20915;-71
2023/05/01 06:25:22;;;;;;;2.03;1.40;;;16.00;42.80;;;;;;5032483;28;20461;-71
2023/05/01 06:27:49;;;;;;;2.63;1.87;;;16.20;41.50;;;;;;5047526;28;20204;-69
2023/05/01 06:30:15;;;;;;;2.50;1.80;;;16.00;41.80;;;;;;5045251;28;20468;-68
2023/05/01 06:32:42;;;;;;;2.20;1.67;;;16.20;38.10;;;;;;5052843;28;20427;-68
2023/05/01 06:35:08;;;;;;;4.63;2.80;;;16.10;40.50;;;;;;5053525;28;20556;-68
2023/05/01 06:37:34;;;;;;;2.53;1.50;;;16.20;38.10;;;;;;5049754;28;20460;-69
2023/05/01 06:40:00;;;;;;;2.53;1.93;;;16.50;37.50;;;;;;5034196;28;20437;-69
2023/05/01 06:42:26;;;;;;;2.40;1.87;;;16.70;38.60;;;;;;5051079;28;20419;-74
2023/05/01 06:44:51;;;;;;;3.70;2.67;;;16.70;37.70;;;;;;5052100;28;20184;-68
2023/05/01 06:47:17;;;;;;;2.93;1.73;;;16.70;38.10;;;;;;5047365;28;20543;-71
2023/05/01 06:49:43;;;;;;;3.07;1.80;;;16.50;37.40;;;;;;5044211;28;20290;-75
2023/05/01 06:52:08;;;;;;;2.17;1.47;;;16.50;37.70;;;;;;5037016;28;20218;-68
2023/05/01 06:54:34;;;;;;;2.53;1.70;;;16.30;38.20;;;;;;5039227;28;20472;-69
2023/05/01 06:57:00;;;;;;;2.83;1.87;;;16.40;38.30;;;;;;5052721;28;20200;-74
2023/05/01 06:59:25;;;;;;;2.80;2.00;;;16.50;38.50;;;;;;5035420;28;20700;-71
2023/05/01 07:01:52;;;;;;;2.50;1.80;;;15.80;40.60;;;;;;5041065;28;20278;-68
2023/05/01 07:04:17;;;;;;;2.13;1.50;;;15.50;42.00;;;;;;5047735;28;20195;-69
2023/05/01 07:06:43;;;;;;;2.20;1.47;;;15.30;41.60;;;;;;5040916;28;20423;-68
2023/05/01 07:09:09;;;;;;;1.97;1.33;;;15.50;41.20;;;;;;5038928;28;20263;-69
2023/05/01 07:11:36;;;;;;;2.53;1.63;;;15.60;39.70;;;;;;5055846;28;20674;-68
2023/05/01 07:14:02;;;;;;;2.17;1.50;;;15.80;40.20;;;;;;5056866;28;20448;-69
2023/05/01 07:16:28;;;;;;;2.10;1.47;;;16.30;40.00;;;;;;5051030;28;20967;-73
2023/05/01 07:18:53;;;;;;;2.83;1.83;;;15.30;42.10;;;;;;5052155;28;20472;-69
2023/05/01 07:21:19;;;;;;;3.40;2.37;;;15.40;44.50;;;;;;5050203;28;20184;-71
2023/05/01 07:23:45;;;;;;;2.23;1.77;;;16.10;40.80;;;;;;5046547;28;20675;-77
2023/05/01 07:26:10;;;;;;;2.10;1.40;;;16.70;40.10;;;;;;5039986;28;20258;-77
2023/05/01 07:28:36;;;;;;;2.27;1.50;;;16.90;38.80;;;;;;5047937;28;20457;-72
2023/05/01 07:31:02;;;;;;;2.13;1.50;;;17.00;38.50;;;;;;5050627;28;20184;-72
2023/05/01 07:33:28;;;;;;;2.60;1.70;;;16.80;38.70;;;;;;5051235;28;20660;-72
2023/05/01 07:35:53;;;;;;;2.80;2.07;;;17.00;40.60;;;;;;5045439;28;20303;-76
2023/05/01 07:38:19;;;;;;;2.20;1.50;;;17.30;36.70;;;;;;5050470;28;20553;-76
2023/05/01 07:40:44;;;;;;;3.50;2.10;;;17.40;37.60;;;;;;5041619;28;20188;-76
2023/05/01 07:43:10;;;;;;;1.93;1.30;;;17.30;39.20;;;;;;5039444;28;20610;-76
2023/05/01 07:45:40;;;;;;;2.10;1.50;;;17.10;37.80;;;;;;5041470;28;20234;-72
2023/05/01 07:48:05;;;;;;;2.40;1.80;;;17.20;39.00;;;;;;5049187;28;20234;-71
2023/05/01 07:50:31;;;;;;;2.50;1.90;;;17.20;40.40;;;;;;5036326;28;20465;-73
2023/05/01 07:52:57;;;;;;;3.37;2.10;;;17.20;40.40;;;;;;5041445;28;20184;-70
2023/05/01 07:55:23;;;;;;;2.40;1.80;;;17.20;39.40;;;;;;5033260;28;20702;-70
2023/05/01 07:57:49;;;;;;;2.57;1.80;;;17.20;38.30;;;;;;5051347;28;20677;-70
2023/05/01 08:00:15;;;;;;;2.77;1.90;;;17.20;38.10;;;;;;5035484;28;20517;-71
2023/05/01 08:02:41;;;;;;;2.13;1.40;;;17.30;38.50;;;;;;5039260;28;20415;-71
2023/05/01 08:05:07;;;;;;;2.30;1.67;;;17.50;37.40;;;;;;5031989;28;20413;-71
2023/05/01 08:07:33;;;;;;;2.30;1.60;;;17.60;37.30;;;;;;5031891;28;20431;-71
2023/05/01 08:10:01;;;;;;;3.70;1.73;;;17.90;35.60;;;;;;5050264;28;20429;-72
2023/05/01 08:12:28;;;;;;;2.20;1.60;;;18.00;36.30;;;;;;5038807;28;20180;-71
2023/05/01 08:14:53;;;;;;;2.60;1.90;;;16.70;35.90;;;;;;5044169;28;20454;-71
2023/05/01 08:17:19;;;;;;;4.73;2.17;;;18.20;37.70;;;;;;5051409;28;20817;-71
2023/05/01 08:19:45;;;;;;;3.70;2.20;;;17.80;37.10;;;;;;5050954;28;20607;-71
2023/05/01 08:22:11;;;;;;;4.53;2.23;;;17.90;36.90;;;;;;5041581;28;20507;-72
2023/05/01 08:24:37;;;;;;;2.67;1.80;;;18.40;36.50;;;;;;5034993;28;20188;-71
2023/05/01 08:27:04;;;;;;;3.03;1.90;;;18.90;36.60;;;;;;5043200;28;20278;-72
2023/05/01 08:29:29;;;;;;;3.90;2.10;;;19.10;34.10;;;;;;5051301;28;20989;-71
2023/05/01 08:31:57;;;;;;;2.20;1.50;;;19.20;33.80;;;;;;5049581;28;20530;-71
2023/05/01 08:34:22;;;;;;;2.30;1.57;;;19.20;33.80;;;;;;5032089;28;20660;-72
2023/05/01 08:36:48;;;;;;;2.33;1.60;;;19.50;33.30;;;;;;5035810;28;20442;-74
2023/05/01 08:39:14;;;;;;;2.70;1.60;;;19.00;34.50;;;;;;5043877;28;20990;-72
2023/05/01 08:41:43;;;;;;;3.10;2.13;;;19.70;33.40;;;;;;5039770;28;20177;-72
2023/05/01 08:44:10;;;;;;;2.33;1.60;;;19.90;32.60;;;;;;5038739;28;20217;-74
2023/05/01 08:47:14;;;;;;;5.60;2.57;;;19.40;33.20;;;;;;5042351;28;20417;-72
2023/05/01 08:49:41;;;;;;;3.00;1.83;;;19.20;33.90;;;;;;5046785;28;20434;-71
2023/05/01 08:52:09;;;;;;;2.73;1.73;;;18.90;35.40;;;;;;5050330;28;20533;-71
2023/05/01 08:54:38;;;;;;;2.70;1.87;;;18.10;36.90;;;;;;5046831;28;20475;-74
2023/05/01 08:57:07;;;;;;;3.30;2.10;;;18.80;36.40;;;;;;5035628;28;20455;-71
2023/05/01 08:59:34;;;;;;;3.13;1.80;;;19.50;35.40;;;;;;5048779;28;21003;-71
2023/05/01 09:02:03;;;;;;;2.70;1.77;;;19.90;33.20;;;;;;5042604;28;20770;-71
2023/05/01 09:04:36;;;;;;;4.83;2.30;;;20.30;32.90;;;;;;5049583;28;20425;-71
2023/05/01 09:07:03;;;;;;;3.47;2.37;;;20.20;31.80;;;;;;5042709;28;20523;-71
2023/05/01 09:09:29;;;;;;;3.20;1.57;;;20.30;31.00;;;;;;5039156;28;20433;-70
2023/05/01 09:12:22;;;;;;;3.20;1.90;;;20.10;31.80;;;;;;5044143;28;20438;-72
2023/05/01 09:14:48;;;;;;;2.50;1.77;;;19.50;35.30;;;;;;5050275;28;20446;-71
2023/05/01 09:17:14;;;;;;;3.23;1.97;;;19.70;36.10;;;;;;5049050;28;20565;-71
2023/05/01 09:19:40;;;;;;;3.47;2.07;;;19.70;34.50;;;;;;5040469;28;20502;-70
2023/05/01 09:22:06;;;;;;;3.00;1.83;;;20.00;32.70;;;;;;5038954;28;20170;-71
2023/05/01 09:24:32;;;;;;;3.23;2.03;;;20.60;30.70;;;;;;5030059;28;20231;-71
2023/05/01 09:26:58;;;;;;;4.63;2.43;;;20.70;30.20;;;;;;5037642;28;20455;-70
2023/05/01 09:29:44;;;;;;;2.70;1.70;;;20.90;29.80;;;;;;5047879;28;21011;-71
2023/05/01 09:32:18;;;;;;;3.30;2.23;;;19.90;31.20;;;;;;5035502;28;20718;-72
2023/05/01 09:34:43;;;;;;;2.97;1.77;;;20.30;30.20;;;;;;5053395;28;20870;-70
2023/05/01 09:37:13;;;;;;;3.20;2.00;;;19.00;31.60;;;;;;5033525;28;20457;-70
2023/05/01 09:39:38;;;;;;;2.70;1.70;;;19.40;31.70;;;;;;5044840;28;20180;-70
2023/05/01 09:42:04;;;;;;;3.00;1.60;;;19.50;32.30;;;;;;5036241;28;20500;-70
2023/05/01 09:44:30;;;;;;;3.20;1.90;;;20.10;30.90;;;;;;5047698;28;20234;-70
2023/05/01 09:46:55;;;;;;;3.20;2.00;;;20.00;30.20;;;;;;5049964;28;20192;-70
2023/05/01 09:49:46;;;;;;;2.80;1.50;;;19.60;31.70;;;;;;5044405;28;20182;-70
2023/05/01 09:52:12;;;;;;;3.30;2.00;;;19.60;31.90;;;;;;5046536;28;20305;-70
2023/05/01 09:54:37;;;;;;;3.63;2.00;;;19.30;32.00;;;;;;5049959;28;20448;-70
2023/05/01 09:57:03;;;;;;;2.80;1.70;;;18.90;33.10;;;;;;5049264;28;20457;-70
2023/05/01 09:59:31;;;;;;;3.13;2.00;;;18.80;33.40;;;;;;5047976;28;20185;-71
2023/05/01 10:01:56;;;;;;;2.90;1.60;;;19.10;32.40;;;;;;5049140;28;20175;-69
2023/05/01 10:04:35;;;;;;;3.67;1.90;;;19.50;30.70;;;;;;5053669;28;20912;-69
2023/05/01 10:07:13;;;;;;;3.07;1.83;;;19.70;30.60;;;;;;5052895;28;20199;-69
2023/05/01 10:09:40;;;;;;;4.50;2.10;;;20.10;31.20;;;;;;5050889;28;20494;-70
2023/05/01 10:12:05;;;;;;;5.47;2.40;;;20.10;30.00;;;;;;5044190;28;20488;-70
2023/05/01 10:14:37;;;;;;;3.50;1.93;;;19.10;33.10;;;;;;5032978;28;20462;-71
2023/05/01 10:17:17;;;;;;;4.77;2.30;;;20.00;31.20;;;;;;5043109;28;20632;-71
2023/05/01 10:19:42;;;;;;;3.93;2.03;;;20.60;29.50;;;;;;5039109;28;20447;-70
2023/05/01 10:22:08;;;;;;;3.20;1.80;;;19.80;31.20;;;;;;5050031;28;20523;-71
2023/05/01 10:24:35;;;;;;;3.23;2.00;;;19.10;30.70;;;;;;5042278;28;20187;-71
2023/05/01 10:27:04;;;;;;;3.60;2.00;;;19.10;31.70;;;;;;5039048;28;20302;-69
2023/05/01 10:29:31;;;;;;;3.33;1.83;;;19.30;31.90;;;;;;5053346;28;20457;-72
2023/05/01 10:31:57;;;;;;;3.60;1.90;;;18.90;32.20;;;;;;5052678;28;20443;-71
2023/05/01 10:34:24;;;;;;;3.53;1.83;;;19.00;31.70;;;;;;5043982;28;20458;-70
2023/05/01 10:36:59;;;;;;;4.07;2.10;;;19.60;31.00;;;;;;5044937;28;20412;-70
2023/05/01 10:39:36;;;;;;;3.33;1.83;;;19.60;30.30;;;;;;5052629;28;20930;-69
2023/05/01 10:42:16;;;;;;;4.37;1.90;;;19.00;30.90;;;;;;5052323;28;20426;-70
2023/05/01 10:44:42;;;;;;;5.60;2.00;;;19.50;30.70;;;;;;5046957;28;20432;-69
2023/05/01 10:47:23;;;;;;;2.90;1.80;;;19.60;30.60;;;;;;5047992;28;20462;-69
2023/05/01 10:50:09;;;;;;;4.30;2.17;;;19.90;30.20;;;;;;5043158;28;20433;-69
2023/05/01 10:53:14;;;;;;;3.90;1.90;;;19.80;30.00;;;;;;5038274;28;20462;-71
2023/05/01 10:55:45;;;;;;;2.80;1.70;;;19.20;30.70;;;;;;5048932;28;21013;-69
2023/05/01 10:58:12;;;;;;;2.60;1.40;;;19.20;31.40;;;;;;5044487;28;20435;-72
2023/05/01 11:00:38;;;;;;;3.20;1.80;;;18.60;31.90;;;;;;5052837;28;20446;-70
2023/05/01 11:03:22;;;;;;;3.10;1.40;;;19.00;32.10;;;;;;5051776;28;20440;-70
2023/05/01 11:06:04;;;;;;;2.87;1.70;;;19.30;32.20;;;;;;5035099;28;20819;-70
2023/05/01 11:08:31;;;;;;;3.40;1.87;;;18.60;34.20;;;;;;5042892;28;20571;-70
2023/05/01 11:10:56;;;;;;;2.63;1.50;;;18.70;34.20;;;;;;5051778;28;20438;-71
2023/05/01 11:13:57;;;;;;;3.30;1.87;;;18.90;35.00;;;;;;5051419;28;20803;-70
2023/05/01 11:16:38;;;;;;;3.47;1.60;;;19.20;35.20;;;;;;5051878;28;20253;-70
2023/05/01 11:19:09;;;;;;;3.17;1.67;;;19.30;34.50;;;;;;5046083;28;20425;-71
2023/05/01 11:21:40;;;;;;;3.47;1.80;;;18.70;37.20;;;;;;5048543;28;20438;-70
2023/05/01 11:24:06;;;;;;;2.50;1.50;;;18.40;36.90;;;;;;5035673;28;20450;-70
2023/05/01 11:26:37;;;;;;;3.10;1.70;;;18.60;37.40;;;;;;5040451;28;20451;-70
2023/05/01 11:29:04;;;;;;;2.40;1.40;;;19.30;36.00;;;;;;5044101;28;20422;-70
2023/05/01 11:31:31;;;;;;;2.60;1.70;;;18.70;36.50;;;;;;5052124;28;20453;-71
2023/05/01 11:33:59;;;;;;;2.60;1.67;;;18.10;38.10;;;;;;5050012;28;20439;-71
2023/05/01 11:36:27;;;;;;;2.53;1.60;;;18.60;38.00;;;;;;5035606;28;20455;-70
2023/05/01 11:38:58;;;;;;;2.70;1.70;;;19.20;38.00;;;;;;5052308;28;20414;-70
2023/05/01 11:41:25;;;;;;;3.03;1.83;;;19.50;34.30;;;;;;5043363;28;20425;-73
2023/05/01 11:43:52;;;;;;;3.13;1.60;;;18.80;36.40;;;;;;5049965;28;21644;-69
2023/05/01 11:46:27;;;;;;;3.10;1.53;;;19.10;36.30;;;;;;5035054;28;20429;-69
2023/05/01 11:48:57;;;;;;;3.10;1.77;;;19.40;34.80;;;;;;5032074;28;20834;-70
2023/05/01 11:51:23;;;;;;;3.80;1.70;;;19.60;32.70;;;;;;5032250;28;20408;-70
2023/05/01 11:54:03;;;;;;;2.90;1.70;;;19.20;33.70;;;;;;5038502;28;20925;-71
2023/05/01 11:56:30;;;;;;;2.90;1.57;;;19.60;32.80;;;;;;5043284;28;20481;-70
2023/05/01 11:59:15;;;;;;;2.83;1.63;;;20.10;32.40;;;;;;5037020;28;20779;-70
2023/05/01 12:01:44;;;;;;;2.90;1.50;;;20.20;30.10;;;;;;5051875;28;20394;-70
2023/05/01 12:04:11;;;;;;;2.83;1.60;;;20.00;32.00;;;;;;5050198;28;20439;-70
2023/05/01 12:06:44;;;;;;;2.80;1.60;;;20.20;31.10;;;;;;5043653;28;20819;-70
2023/05/01 12:09:16;;;;;;;3.10;1.60;;;19.70;31.70;;;;;;5031761;28;21310;-70
2023/05/01 12:11:42;;;;;;;3.00;1.80;;;19.20;32.80;;;;;;5046013;28;20440;-70
2023/05/01 12:14:09;;;;;;;3.60;1.80;;;19.40;32.60;;;;;;5049646;28;20409;-70
2023/05/01 12:16:35;;;;;;;3.60;1.90;;;19.60;32.90;;;;;;5050586;28;20422;-70
2023/05/01 12:19:01;;;;;;;4.17;2.17;;;20.00;31.30;;;;;;5038773;28;20533;-71
2023/05/01 12:21:27;;;;;;;3.80;1.90;;;20.00;31.00;;;;;;5048649;28;20434;-70
2023/05/01 12:23:53;;;;;;;4.27;2.20;;;20.00;31.30;;;;;;5050680;28;20501;-70
2023/05/01 12:26:24;;;;;;;3.03;1.50;;;20.90;29.10;;;;;;5050207;28;20477;-70
2023/05/01 12:28:55;;;;;;;3.10;1.77;;;21.40;30.90;;;;;;5049040;28;20501;-72
2023/05/01 12:31:22;;;;;;;3.00;1.40;;;22.50;27.20;;;;;;5039577;28;20457;-72
2023/05/01 12:33:55;;;;;;;3.60;1.80;;;23.00;25.80;;;;;;5046247;28;20997;-70
2023/05/01 12:36:25;;;;;;;3.47;1.70;;;22.60;26.70;;;;;;5042912;28;20481;-70
2023/05/01 12:38:59;;;;;;;3.90;1.90;;;23.40;26.20;;;;;;5046954;28;20510;-70
2023/05/01 12:41:38;;;;;;;4.37;2.23;;;24.10;24.20;;;;;;5048048;28;20849;-70
2023/05/01 12:44:31;;;;;;;3.60;1.50;;;23.90;23.60;;;;;;5043023;28;21010;-70
2023/05/01 12:47:07;;;;;;;3.30;1.47;;;23.80;24.20;;;;;;5043384;28;20490;-70
2023/05/01 12:49:38;;;;;;;3.50;1.50;;;23.80;22.50;;;;;;5049134;28;20514;-70
2023/05/01 12:52:06;;;;;;;3.50;1.50;;;23.60;23.30;;;;;;5049992;28;20977;-70
2023/05/01 12:54:36;;;;;;;3.37;1.50;;;24.00;24.00;;;;;;5046836;28;20503;-71
2023/05/01 12:57:07;;;;;;;3.50;1.57;;;24.70;22.60;;;;;;5042318;28;20653;-70